sensor_id;sensor_type;location;lat;lon;timestamp;temperature;humidity
16273;DHT22;8244;50.044;9.006;2023-07-13T00:01:54;21.20;81.90
16273;DHT22;8244;50.044;9.006;2023-07-13T00:06:56;21.20;83.20
16273;DHT22;8244;50.044;9.006;2023-07-13T00:11:59;21.10;83.10
16273;DHT22;8244;50.044;9.006;2023-07-13T00:17:01;21.00;83.90
16273;DHT22;8244;50.044;9.006;2023-07-13T00:22:04;20.90;83.80
16273;DHT22;8244;50.044;9.006;2023-07-13T00:27:09;20.90;84.80
16273;DHT22;8244;50.044;9.006;2023-07-13T00:32:11;20.90;85.90
16273;DHT22;8244;50.044;9.006;2023-07-13T00:37:12;20.80;83.60
16273;DHT22;8244;50.044;9.006;2023-07-13T00:42:15;20.80;83.90
16273;DHT22;8244;50.044;9.006;2023-07-13T00:47:17;20.80;83.90
16273;DHT22;8244;50.044;9.006;2023-07-13T00:52:19;20.70;85.20
16273;DHT22;8244;50.044;9.006;2023-07-13T00:57:22;20.70;85.70
16273;DHT22;8244;50.044;9.006;2023-07-13T01:02:25;20.70;87.00
16273;DHT22;8244;50.044;9.006;2023-07-13T01:07:27;20.50;86.80
16273;DHT22;8244;50.044;9.006;2023-07-13T01:12:31;20.50;86.30
16273;DHT22;8244;50.044;9.006;2023-07-13T01:17:34;20.40;85.60
16273;DHT22;8244;50.044;9.006;2023-07-13T01:22:37;20.30;86.60
16273;DHT22;8244;50.044;9.006;2023-07-13T01:27:39;20.20;86.60
16273;DHT22;8244;50.044;9.006;2023-07-13T01:32:41;20.10;87.00
16273;DHT22;8244;50.044;9.006;2023-07-13T01:37:44;20.10;87.60
16273;DHT22;8244;50.044;9.006;2023-07-13T01:42:46;20.00;86.90
16273;DHT22;8244;50.044;9.006;2023-07-13T01:47:48;19.90;87.60
16273;DHT22;8244;50.044;9.006;2023-07-13T01:52:51;19.70;88.10
16273;DHT22;8244;50.044;9.006;2023-07-13T01:57:53;19.50;88.70
16273;DHT22;8244;50.044;9.006;2023-07-13T02:02:55;19.40;89.70
16273;DHT22;8244;50.044;9.006;2023-07-13T02:07:58;19.20;90.50
16273;DHT22;8244;50.044;9.006;2023-07-13T02:13:03;19.10;91.40
16273;DHT22;8244;50.044;9.006;2023-07-13T02:18:05;19.00;91.60
16273;DHT22;8244;50.044;9.006;2023-07-13T02:23:08;18.90;91.90
16273;DHT22;8244;50.044;9.006;2023-07-13T02:28:10;18.70;92.60
16273;DHT22;8244;50.044;9.006;2023-07-13T02:33:12;18.50;92.80
16273;DHT22;8244;50.044;9.006;2023-07-13T02:38:15;18.40;93.40
16273;DHT22;8244;50.044;9.006;2023-07-13T02:43:16;18.20;93.20
16273;DHT22;8244;50.044;9.006;2023-07-13T02:48:18;18.10;92.70
16273;DHT22;8244;50.044;9.006;2023-07-13T02:53:21;18.00;92.60
16273;DHT22;8244;50.044;9.006;2023-07-13T02:58:23;17.90;92.70
16273;DHT22;8244;50.044;9.006;2023-07-13T03:03:24;17.90;92.70
16273;DHT22;8244;50.044;9.006;2023-07-13T03:08:29;17.80;92.70
16273;DHT22;8244;50.044;9.006;2023-07-13T03:13:31;17.80;93.00
16273;DHT22;8244;50.044;9.006;2023-07-13T03:18:32;17.70;93.40
16273;DHT22;8244;50.044;9.006;2023-07-13T03:23:35;17.50;93.60
16273;DHT22;8244;50.044;9.006;2023-07-13T03:28:37;17.40;94.00
16273;DHT22;8244;50.044;9.006;2023-07-13T03:33:39;17.30;94.30
16273;DHT22;8244;50.044;9.006;2023-07-13T03:38:42;17.10;94.50
16273;DHT22;8244;50.044;9.006;2023-07-13T03:43:44;17.00;95.00
16273;DHT22;8244;50.044;9.006;2023-07-13T03:48:46;16.90;95.20
16273;DHT22;8244;50.044;9.006;2023-07-13T03:53:50;16.80;95.30
16273;DHT22;8244;50.044;9.006;2023-07-13T03:58:52;16.80;95.60
16273;DHT22;8244;50.044;9.006;2023-07-13T04:03:53;16.70;96.40
16273;DHT22;8244;50.044;9.006;2023-07-13T04:08:58;16.70;96.60
16273;DHT22;8244;50.044;9.006;2023-07-13T04:14:00;16.60;96.80
16273;DHT22;8244;50.044;9.006;2023-07-13T04:19:01;16.60;97.40
16273;DHT22;8244;50.044;9.006;2023-07-13T04:24:05;16.50;98.00
16273;DHT22;8244;50.044;9.006;2023-07-13T04:29:08;16.50;98.50
16273;DHT22;8244;50.044;9.006;2023-07-13T04:34:09;16.50;98.70
16273;DHT22;8244;50.044;9.006;2023-07-13T04:39:13;16.50;99.40
16273;DHT22;8244;50.044;9.006;2023-07-13T04:44:14;16.60;99.90
16273;DHT22;8244;50.044;9.006;2023-07-13T04:49:16;16.80;99.90
16273;DHT22;8244;50.044;9.006;2023-07-13T04:54:20;17.10;99.90
16273;DHT22;8244;50.044;9.006;2023-07-13T04:59:22;17.60;99.90
16273;DHT22;8244;50.044;9.006;2023-07-13T05:04:24;18.10;99.60
16273;DHT22;8244;50.044;9.006;2023-07-13T05:09:27;18.70;99.90
16273;DHT22;8244;50.044;9.006;2023-07-13T05:14:29;19.60;99.10
16273;DHT22;8244;50.044;9.006;2023-07-13T05:19:31;20.80;94.70
16273;DHT22;8244;50.044;9.006;2023-07-13T05:24:34;22.10;91.20
16273;DHT22;8244;50.044;9.006;2023-07-13T05:29:36;23.10;87.90
16273;DHT22;8244;50.044;9.006;2023-07-13T05:34:37;23.80;84.70
16273;DHT22;8244;50.044;9.006;2023-07-13T05:39:40;24.80;82.30
16273;DHT22;8244;50.044;9.006;2023-07-13T05:44:42;25.70;79.70
16273;DHT22;8244;50.044;9.006;2023-07-13T05:49:44;26.70;75.70
16273;DHT22;8244;50.044;9.006;2023-07-13T05:54:47;27.20;72.90
16273;DHT22;8244;50.044;9.006;2023-07-13T05:59:48;27.00;72.70
16273;DHT22;8244;50.044;9.006;2023-07-13T06:04:50;27.10;74.40
16273;DHT22;8244;50.044;9.006;2023-07-13T06:09:53;27.40;72.80
16273;DHT22;8244;50.044;9.006;2023-07-13T06:14:55;27.70;72.60
16273;DHT22;8244;50.044;9.006;2023-07-13T06:19:57;28.10;70.00
16273;DHT22;8244;50.044;9.006;2023-07-13T06:25:00;28.60;70.10
16273;DHT22;8244;50.044;9.006;2023-07-13T06:30:01;28.60;68.40
16273;DHT22;8244;50.044;9.006;2023-07-13T06:35:04;28.90;66.50
16273;DHT22;8244;50.044;9.006;2023-07-13T06:40:09;28.70;68.70
16273;DHT22;8244;50.044;9.006;2023-07-13T06:45:10;29.40;69.60
16273;DHT22;8244;50.044;9.006;2023-07-13T06:50:12;30.20;63.60
16273;DHT22;8244;50.044;9.006;2023-07-13T06:55:15;30.80;62.50
16273;DHT22;8244;50.044;9.006;2023-07-13T07:00:17;31.40;62.30
16273;DHT22;8244;50.044;9.006;2023-07-13T07:05:19;31.40;60.00
16273;DHT22;8244;50.044;9.006;2023-07-13T07:10:23;31.70;58.20
16273;DHT22;8244;50.044;9.006;2023-07-13T07:15:25;31.60;57.50
16273;DHT22;8244;50.044;9.006;2023-07-13T07:20:27;32.00;57.70
16273;DHT22;8244;50.044;9.006;2023-07-13T07:25:30;32.60;57.60
16273;DHT22;8244;50.044;9.006;2023-07-13T07:30:33;32.70;56.80
16273;DHT22;8244;50.044;9.006;2023-07-13T07:35:35;33.00;54.00
16273;DHT22;8244;50.044;9.006;2023-07-13T07:40:38;32.20;55.50
16273;DHT22;8244;50.044;9.006;2023-07-13T07:45:40;32.20;57.10
16273;DHT22;8244;50.044;9.006;2023-07-13T07:50:42;32.60;55.50
16273;DHT22;8244;50.044;9.006;2023-07-13T07:55:46;32.60;55.10
16273;DHT22;8244;50.044;9.006;2023-07-13T08:00:48;32.80;57.20
16273;DHT22;8244;50.044;9.006;2023-07-13T08:05:52;32.40;56.30
16273;DHT22;8244;50.044;9.006;2023-07-13T08:10:55;32.90;58.00
16273;DHT22;8244;50.044;9.006;2023-07-13T08:15:57;33.80;55.40
16273;DHT22;8244;50.044;9.006;2023-07-13T08:21:03;33.70;52.60
16273;DHT22;8244;50.044;9.006;2023-07-13T08:26:07;33.90;54.20
16273;DHT22;8244;50.044;9.006;2023-07-13T08:31:09;33.90;53.10
16273;DHT22;8244;50.044;9.006;2023-07-13T08:36:12;34.00;53.50
16273;DHT22;8244;50.044;9.006;2023-07-13T08:41:17;34.60;53.10
16273;DHT22;8244;50.044;9.006;2023-07-13T08:46:23;34.90;50.10
16273;DHT22;8244;50.044;9.006;2023-07-13T08:51:35;33.90;50.90
16273;DHT22;8244;50.044;9.006;2023-07-13T08:56:44;32.40;53.30
16273;DHT22;8244;50.044;9.006;2023-07-13T09:02:20;32.50;54.40
16273;DHT22;8244;50.044;9.006;2023-07-13T09:07:32;32.70;54.10
16273;DHT22;8244;50.044;9.006;2023-07-13T09:12:51;32.80;53.70
16273;DHT22;8244;50.044;9.006;2023-07-13T09:17:57;32.40;53.40
16273;DHT22;8244;50.044;9.006;2023-07-13T09:23:07;31.90;53.30
16273;DHT22;8244;50.044;9.006;2023-07-13T09:28:15;31.10;54.60
16273;DHT22;8244;50.044;9.006;2023-07-13T09:33:18;30.80;54.70
16273;DHT22;8244;50.044;9.006;2023-07-13T09:38:22;30.00;56.00
16273;DHT22;8244;50.044;9.006;2023-07-13T09:43:27;30.20;56.40
16273;DHT22;8244;50.044;9.006;2023-07-13T09:48:34;30.90;56.90
16273;DHT22;8244;50.044;9.006;2023-07-13T09:53:36;30.90;55.10
16273;DHT22;8244;50.044;9.006;2023-07-13T09:58:39;30.40;55.80
16273;DHT22;8244;50.044;9.006;2023-07-13T10:03:52;30.30;54.60
16273;DHT22;8244;50.044;9.006;2023-07-13T10:08:56;30.80;54.20
16273;DHT22;8244;50.044;9.006;2023-07-13T10:14:01;31.40;55.70
16273;DHT22;8244;50.044;9.006;2023-07-13T10:19:07;31.40;54.00
16273;DHT22;8244;50.044;9.006;2023-07-13T10:24:15;31.60;51.10
16273;DHT22;8244;50.044;9.006;2023-07-13T10:29:22;31.50;50.70
16273;DHT22;8244;50.044;9.006;2023-07-13T10:34:25;31.40;52.50
16273;DHT22;8244;50.044;9.006;2023-07-13T10:39:28;31.10;54.00
16273;DHT22;8244;50.044;9.006;2023-07-13T10:44:32;31.10;55.30
16273;DHT22;8244;50.044;9.006;2023-07-13T10:49:35;31.10;53.80
16273;DHT22;8244;50.044;9.006;2023-07-13T10:54:37;30.90;52.80
16273;DHT22;8244;50.044;9.006;2023-07-13T10:59:41;30.70;54.20
16273;DHT22;8244;50.044;9.006;2023-07-13T11:04:46;30.30;51.70
16273;DHT22;8244;50.044;9.006;2023-07-13T11:09:53;29.50;53.20
16273;DHT22;8244;50.044;9.006;2023-07-13T11:15:06;28.70;54.90
16273;DHT22;8244;50.044;9.006;2023-07-13T11:20:22;28.60;54.90
16273;DHT22;8244;50.044;9.006;2023-07-13T11:25:29;28.50;57.20
16273;DHT22;8244;50.044;9.006;2023-07-13T11:30:37;29.70;56.40
16273;DHT22;8244;50.044;9.006;2023-07-13T11:35:53;30.30;55.60
16273;DHT22;8244;50.044;9.006;2023-07-13T11:41:02;30.70;53.90
16273;DHT22;8244;50.044;9.006;2023-07-13T11:46:18;31.10;54.20
16273;DHT22;8244;50.044;9.006;2023-07-13T11:51:23;31.50;53.30
16273;DHT22;8244;50.044;9.006;2023-07-13T11:56:26;31.80;52.70
16273;DHT22;8244;50.044;9.006;2023-07-13T12:01:31;31.70;52.30
16273;DHT22;8244;50.044;9.006;2023-07-13T12:06:35;32.50;51.00
16273;DHT22;8244;50.044;9.006;2023-07-13T12:11:41;32.70;50.40
16273;DHT22;8244;50.044;9.006;2023-07-13T12:16:46;33.00;51.30
16273;DHT22;8244;50.044;9.006;2023-07-13T12:21:52;33.40;48.90
16273;DHT22;8244;50.044;9.006;2023-07-13T12:26:59;33.50;48.80
16273;DHT22;8244;50.044;9.006;2023-07-13T12:32:08;32.70;49.90
16273;DHT22;8244;50.044;9.006;2023-07-13T12:37:12;32.00;50.90
16273;DHT22;8244;50.044;9.006;2023-07-13T12:42:19;31.80;50.10
16273;DHT22;8244;50.044;9.006;2023-07-13T12:47:25;31.10;51.50
16273;DHT22;8244;50.044;9.006;2023-07-13T12:52:30;31.30;51.20
16273;DHT22;8244;50.044;9.006;2023-07-13T12:57:38;31.30;52.20
16273;DHT22;8244;50.044;9.006;2023-07-13T13:02:42;31.50;51.90
16273;DHT22;8244;50.044;9.006;2023-07-13T13:07:44;32.30;50.20
16273;DHT22;8244;50.044;9.006;2023-07-13T13:12:47;32.30;50.60
16273;DHT22;8244;50.044;9.006;2023-07-13T13:17:50;32.00;51.30
16273;DHT22;8244;50.044;9.006;2023-07-13T13:22:52;31.50;51.60
16273;DHT22;8244;50.044;9.006;2023-07-13T13:27:55;31.20;51.50
16273;DHT22;8244;50.044;9.006;2023-07-13T13:32:58;31.00;51.70
16273;DHT22;8244;50.044;9.006;2023-07-13T13:38:00;30.70;51.90
16273;DHT22;8244;50.044;9.006;2023-07-13T13:43:02;30.00;52.30
16273;DHT22;8244;50.044;9.006;2023-07-13T13:48:05;29.50;53.70
16273;DHT22;8244;50.044;9.006;2023-07-13T13:53:10;29.40;55.40
16273;DHT22;8244;50.044;9.006;2023-07-13T13:58:12;29.30;53.90
16273;DHT22;8244;50.044;9.006;2023-07-13T14:03:16;29.00;55.50
16273;DHT22;8244;50.044;9.006;2023-07-13T14:08:20;28.90;55.50
16273;DHT22;8244;50.044;9.006;2023-07-13T14:13:25;28.50;55.60
16273;DHT22;8244;50.044;9.006;2023-07-13T14:18:29;28.10;55.00
16273;DHT22;8244;50.044;9.006;2023-07-13T14:23:31;27.80;55.80
16273;DHT22;8244;50.044;9.006;2023-07-13T14:28:41;27.80;56.10
16273;DHT22;8244;50.044;9.006;2023-07-13T14:33:45;28.20;55.90
16273;DHT22;8244;50.044;9.006;2023-07-13T14:38:47;28.40;56.10
16273;DHT22;8244;50.044;9.006;2023-07-13T14:43:49;28.60;55.50
16273;DHT22;8244;50.044;9.006;2023-07-13T14:48:53;28.90;55.80
16273;DHT22;8244;50.044;9.006;2023-07-13T14:53:57;29.00;56.30
16273;DHT22;8244;50.044;9.006;2023-07-13T14:58:58;29.00;54.50
16273;DHT22;8244;50.044;9.006;2023-07-13T15:04:02;29.10;55.50
16273;DHT22;8244;50.044;9.006;2023-07-13T15:09:04;29.00;54.60
16273;DHT22;8244;50.044;9.006;2023-07-13T15:14:06;29.00;55.40
16273;DHT22;8244;50.044;9.006;2023-07-13T15:19:10;29.10;55.70
16273;DHT22;8244;50.044;9.006;2023-07-13T15:24:12;29.20;54.40
16273;DHT22;8244;50.044;9.006;2023-07-13T15:29:14;28.90;53.60
16273;DHT22;8244;50.044;9.006;2023-07-13T15:34:22;28.80;54.10
16273;DHT22;8244;50.044;9.006;2023-07-13T15:39:26;28.70;55.20
16273;DHT22;8244;50.044;9.006;2023-07-13T15:44:29;28.70;55.00
16273;DHT22;8244;50.044;9.006;2023-07-13T15:49:33;28.70;57.00
16273;DHT22;8244;50.044;9.006;2023-07-13T15:54:35;28.60;56.90
16273;DHT22;8244;50.044;9.006;2023-07-13T15:59:37;28.50;57.40
16273;DHT22;8244;50.044;9.006;2023-07-13T16:04:41;28.60;57.50
16273;DHT22;8244;50.044;9.006;2023-07-13T16:09:44;28.70;57.00
16273;DHT22;8244;50.044;9.006;2023-07-13T16:14:46;28.80;56.80
16273;DHT22;8244;50.044;9.006;2023-07-13T16:19:50;28.70;56.60
16273;DHT22;8244;50.044;9.006;2023-07-13T16:24:52;28.50;57.00
16273;DHT22;8244;50.044;9.006;2023-07-13T16:29:56;28.60;57.30
16273;DHT22;8244;50.044;9.006;2023-07-13T16:35:00;28.60;57.50
16273;DHT22;8244;50.044;9.006;2023-07-13T16:40:05;28.50;57.40
16273;DHT22;8244;50.044;9.006;2023-07-13T16:45:11;28.30;56.40
16273;DHT22;8244;50.044;9.006;2023-07-13T16:50:17;28.10;57.50
16273;DHT22;8244;50.044;9.006;2023-07-13T16:55:20;27.90;57.70
16273;DHT22;8244;50.044;9.006;2023-07-13T17:00:29;27.70;57.60
16273;DHT22;8244;50.044;9.006;2023-07-13T17:05:35;27.40;57.60
16273;DHT22;8244;50.044;9.006;2023-07-13T17:10:41;27.10;57.20
16273;DHT22;8244;50.044;9.006;2023-07-13T17:15:45;27.20;57.80
16273;DHT22;8244;50.044;9.006;2023-07-13T17:20:50;27.30;57.50
16273;DHT22;8244;50.044;9.006;2023-07-13T17:25:52;27.50;57.80
16273;DHT22;8244;50.044;9.006;2023-07-13T17:30:56;27.10;57.70
16273;DHT22;8244;50.044;9.006;2023-07-13T17:36:02;26.90;57.90
16273;DHT22;8244;50.044;9.006;2023-07-13T17:41:05;26.70;58.20
16273;DHT22;8244;50.044;9.006;2023-07-13T17:46:13;26.50;58.70
16273;DHT22;8244;50.044;9.006;2023-07-13T17:51:18;26.30;59.00
16273;DHT22;8244;50.044;9.006;2023-07-13T17:56:21;26.20;58.80
16273;DHT22;8244;50.044;9.006;2023-07-13T18:01:25;26.30;58.70
16273;DHT22;8244;50.044;9.006;2023-07-13T18:06:34;26.20;59.50
16273;DHT22;8244;50.044;9.006;2023-07-13T18:11:37;26.00;59.70
16273;DHT22;8244;50.044;9.006;2023-07-13T18:16:39;26.00;61.20
16273;DHT22;8244;50.044;9.006;2023-07-13T18:21:43;26.00;60.50
16273;DHT22;8244;50.044;9.006;2023-07-13T18:26:45;25.80;59.70
16273;DHT22;8244;50.044;9.006;2023-07-13T18:31:47;25.70;59.50
16273;DHT22;8244;50.044;9.006;2023-07-13T18:36:52;25.50;60.60
16273;DHT22;8244;50.044;9.006;2023-07-13T18:41:55;25.40;61.60
16273;DHT22;8244;50.044;9.006;2023-07-13T18:46:58;25.30;61.00
16273;DHT22;8244;50.044;9.006;2023-07-13T18:52:01;25.10;61.10
16273;DHT22;8244;50.044;9.006;2023-07-13T18:57:05;24.90;62.30
16273;DHT22;8244;50.044;9.006;2023-07-13T19:02:10;24.80;62.70
16273;DHT22;8244;50.044;9.006;2023-07-13T19:07:21;24.60;62.70
16273;DHT22;8244;50.044;9.006;2023-07-13T19:12:24;24.50;63.50
16273;DHT22;8244;50.044;9.006;2023-07-13T19:17:26;24.40;63.90
16273;DHT22;8244;50.044;9.006;2023-07-13T19:22:30;24.20;64.00
16273;DHT22;8244;50.044;9.006;2023-07-13T19:27:35;24.00;65.30
16273;DHT22;8244;50.044;9.006;2023-07-13T19:32:41;23.80;66.30
16273;DHT22;8244;50.044;9.006;2023-07-13T19:37:49;23.60;67.70
16273;DHT22;8244;50.044;9.006;2023-07-13T19:42:52;23.40;68.10
16273;DHT22;8244;50.044;9.006;2023-07-13T19:47:54;23.20;69.40
16273;DHT22;8244;50.044;9.006;2023-07-13T19:52:57;23.00;70.30
16273;DHT22;8244;50.044;9.006;2023-07-13T19:58:00;22.70;70.30
16273;DHT22;8244;50.044;9.006;2023-07-13T20:03:03;22.50;71.30
16273;DHT22;8244;50.044;9.006;2023-07-13T20:08:13;22.30;72.30
16273;DHT22;8244;50.044;9.006;2023-07-13T20:13:19;22.10;73.10
16273;DHT22;8244;50.044;9.006;2023-07-13T20:18:21;21.90;73.90
16273;DHT22;8244;50.044;9.006;2023-07-13T20:23:24;21.70;74.30
16273;DHT22;8244;50.044;9.006;2023-07-13T20:28:28;21.60;75.10
16273;DHT22;8244;50.044;9.006;2023-07-13T20:33:30;21.40;75.00
16273;DHT22;8244;50.044;9.006;2023-07-13T20:38:33;21.30;76.00
16273;DHT22;8244;50.044;9.006;2023-07-13T20:43:35;21.00;76.30
16273;DHT22;8244;50.044;9.006;2023-07-13T20:48:38;20.90;77.40
16273;DHT22;8244;50.044;9.006;2023-07-13T20:53:44;20.70;78.10
16273;DHT22;8244;50.044;9.006;2023-07-13T20:58:47;20.60;79.60
16273;DHT22;8244;50.044;9.006;2023-07-13T21:03:49;20.40;80.40
16273;DHT22;8244;50.044;9.006;2023-07-13T21:08:53;20.20;82.80
16273;DHT22;8244;50.044;9.006;2023-07-13T21:13:55;20.10;83.10
16273;DHT22;8244;50.044;9.006;2023-07-13T21:18:57;20.00;84.90
16273;DHT22;8244;50.044;9.006;2023-07-13T21:24:01;19.80;86.50
16273;DHT22;8244;50.044;9.006;2023-07-13T21:29:02;19.70;87.10
16273;DHT22;8244;50.044;9.006;2023-07-13T21:34:09;19.70;88.20
16273;DHT22;8244;50.044;9.006;2023-07-13T21:39:15;19.60;86.90
16273;DHT22;8244;50.044;9.006;2023-07-13T21:44:24;19.60;87.70
16273;DHT22;8244;50.044;9.006;2023-07-13T21:49:26;19.60;88.70
16273;DHT22;8244;50.044;9.006;2023-07-13T21:54:29;19.60;89.90
16273;DHT22;8244;50.044;9.006;2023-07-13T21:59:30;19.60;89.40
16273;DHT22;8244;50.044;9.006;2023-07-13T22:04:33;19.50;88.20
16273;DHT22;8244;50.044;9.006;2023-07-13T22:09:36;19.40;88.30
16273;DHT22;8244;50.044;9.006;2023-07-13T22:14:37;19.40;88.90
16273;DHT22;8244;50.044;9.006;2023-07-13T22:19:40;19.30;89.70
16273;DHT22;8244;50.044;9.006;2023-07-13T22:24:43;19.20;90.20
16273;DHT22;8244;50.044;9.006;2023-07-13T22:29:45;19.10;90.80
16273;DHT22;8244;50.044;9.006;2023-07-13T22:34:47;19.10;90.90
16273;DHT22;8244;50.044;9.006;2023-07-13T22:39:50;19.00;90.90
16273;DHT22;8244;50.044;9.006;2023-07-13T22:44:52;18.90;91.30
16273;DHT22;8244;50.044;9.006;2023-07-13T22:49:55;18.90;91.30
16273;DHT22;8244;50.044;9.006;2023-07-13T22:54:58;18.90;91.20
16273;DHT22;8244;50.044;9.006;2023-07-13T22:59:59;18.80;91.40
16273;DHT22;8244;50.044;9.006;2023-07-13T23:05:01;18.70;91.80
16273;DHT22;8244;50.044;9.006;2023-07-13T23:10:14;18.50;92.10
16273;DHT22;8244;50.044;9.006;2023-07-13T23:15:18;18.40;92.60
16273;DHT22;8244;50.044;9.006;2023-07-13T23:20:24;18.20;94.10
16273;DHT22;8244;50.044;9.006;2023-07-13T23:25:28;18.00;94.00
16273;DHT22;8244;50.044;9.006;2023-07-13T23:30:33;17.90;94.50
16273;DHT22;8244;50.044;9.006;2023-07-13T23:35:35;17.70;96.20
16273;DHT22;8244;50.044;9.006;2023-07-13T23:40:38;17.50;96.80
16273;DHT22;8244;50.044;9.006;2023-07-13T23:45:40;17.40;97.70
16273;DHT22;8244;50.044;9.006;2023-07-13T23:50:43;17.30;98.90
16273;DHT22;8244;50.044;9.006;2023-07-13T23:55:46;17.20;99.80
